createdAt,value
2018-09-06T00:00:33.878Z,12.27
2018-09-06T00:03:03.153Z,13.03
2018-09-06T00:05:36.566Z,12.80
2018-09-06T00:08:05.627Z,11.93
2018-09-06T00:10:35.052Z,13.53
2018-09-06T00:13:03.197Z,11.90
2018-09-06T00:15:33.856Z,14.60
2018-09-06T00:18:02.853Z,12.13
2018-09-06T00:20:31.265Z,12.77
2018-09-06T00:22:59.244Z,12.90
2018-09-06T00:25:27.303Z,14.63
2018-09-06T00:27:55.997Z,15.37
2018-09-06T00:30:25.253Z,11.60
2018-09-06T00:32:54.621Z,12.83
2018-09-06T00:35:23.334Z,15.60
2018-09-06T00:37:52.482Z,12.50
2018-09-06T00:40:24.421Z,12.47
2018-09-06T00:42:53.496Z,12.53
2018-09-06T00:45:21.815Z,12.87
2018-09-06T00:47:50.888Z,14.37
2018-09-06T00:50:22.558Z,12.20
2018-09-06T00:52:52.866Z,11.67
2018-09-06T00:55:22.522Z,14.23
2018-09-06T00:57:50.759Z,14.43
2018-09-06T01:00:19.638Z,12.63
2018-09-06T01:02:49.189Z,12.70
2018-09-06T01:05:17.974Z,12.90
2018-09-06T01:07:46.484Z,12.17
2018-09-06T01:10:15.182Z,14.00
2018-09-06T01:12:43.326Z,13.03
2018-09-06T01:15:11.391Z,12.33
2018-09-06T01:17:41.836Z,14.37
2018-09-06T01:20:10.730Z,11.60
2018-09-06T01:22:38.788Z,12.20
2018-09-06T01:25:06.822Z,12.07
2018-09-06T01:27:35.462Z,13.47
2018-09-06T01:30:04.790Z,11.63
2018-09-06T01:32:34.696Z,12.57
2018-09-06T01:35:03.032Z,14.23
2018-09-06T01:37:31.289Z,17.00
2018-09-06T01:39:59.888Z,13.83
2018-09-06T01:42:29.244Z,14.67
2018-09-06T01:44:57.415Z,13.27
2018-09-06T01:47:27.058Z,15.53
2018-09-06T01:49:55.669Z,12.73
2018-09-06T01:52:24.626Z,13.27
2018-09-06T01:54:52.820Z,11.80
2018-09-06T01:57:21.043Z,12.90
2018-09-06T01:59:49.032Z,13.70
2018-09-06T02:02:18.971Z,12.97
2018-09-06T02:04:47.339Z,12.83
2018-09-06T02:07:16.547Z,14.37
2018-09-06T02:09:44.811Z,15.77
2018-09-06T02:12:13.808Z,17.93
2018-09-06T02:14:42.950Z,16.33
2018-09-06T02:17:11.994Z,15.30
2018-09-06T02:19:41.024Z,12.90
2018-09-06T02:22:10.144Z,13.63
2018-09-06T02:24:39.463Z,13.10
2018-09-06T02:27:07.986Z,15.60
2018-09-06T02:29:36.615Z,13.20
2018-09-06T02:32:06.457Z,16.07
2018-09-06T02:34:34.758Z,15.47
2018-09-06T02:37:03.028Z,13.80
2018-09-06T02:39:31.716Z,15.47
2018-09-06T02:42:00.420Z,13.87
2018-09-06T02:44:28.941Z,13.17
2018-09-06T02:46:59.420Z,15.07
2018-09-06T02:49:33.800Z,13.73
2018-09-06T02:52:02.782Z,13.20
2018-09-06T02:54:35.720Z,15.87
2018-09-06T02:57:04.004Z,13.40
2018-09-06T02:59:32.764Z,13.87
2018-09-06T03:02:01.267Z,16.63
2018-09-06T03:04:29.851Z,15.90
2018-09-06T03:07:00.183Z,15.27
2018-09-06T03:09:29.208Z,17.67
2018-09-06T03:12:00.975Z,15.30
2018-09-06T03:14:30.981Z,15.03
2018-09-06T03:17:00.005Z,17.03
2018-09-06T03:19:28.446Z,17.27
2018-09-06T03:21:58.990Z,19.97
2018-09-06T03:24:26.946Z,18.80
2018-09-06T03:26:55.872Z,14.33
2018-09-06T03:29:24.937Z,14.43
2018-09-06T03:31:53.160Z,16.47
2018-09-06T03:34:21.217Z,16.23
2018-09-06T03:36:49.237Z,16.00
2018-09-06T03:39:19.791Z,18.20
2018-09-06T03:41:47.893Z,17.73
2018-09-06T03:44:16.932Z,14.47
2018-09-06T03:46:57.265Z,16.07
2018-09-06T03:49:25.691Z,16.33
2018-09-06T03:51:54.941Z,13.30
2018-09-06T03:54:27.833Z,14.77
2018-09-06T03:56:57.250Z,13.93
2018-09-06T03:59:29.320Z,14.27
2018-09-06T04:01:57.382Z,28.03
2018-09-06T04:04:26.012Z,30.63
2018-09-06T04:06:54.913Z,21.27
2018-09-06T04:09:27.435Z,27.73
2018-09-06T04:12:04.973Z,26.40
2018-09-06T04:14:54.388Z,21.93
2018-09-06T04:17:24.775Z,17.23
2018-09-06T04:19:58.300Z,15.67
2018-09-06T04:22:27.314Z,15.17
2018-09-06T04:25:15.979Z,17.60
2018-09-06T04:27:44.206Z,23.63
2018-09-06T04:30:12.202Z,21.07
2018-09-06T04:32:40.593Z,23.87
2018-09-06T04:35:09.156Z,16.77
2018-09-06T04:37:39.233Z,16.57
2018-09-06T04:43:37.968Z,21.33
2018-09-06T04:46:07.597Z,18.97
2018-09-06T04:48:35.599Z,18.30
2018-09-06T04:51:05.584Z,23.10
2018-09-06T04:53:34.071Z,23.60
2018-09-06T04:56:03.394Z,20.50
2018-09-06T04:58:31.843Z,26.77
2018-09-06T05:01:10.087Z,27.00
2018-09-06T05:03:57.104Z,25.07
2018-09-06T05:06:26.781Z,19.83
2018-09-06T05:08:56.038Z,23.70
2018-09-06T05:11:24.809Z,35.77
2018-09-06T05:13:53.634Z,28.97
2018-09-06T05:16:22.376Z,23.30
2018-09-06T05:19:10.571Z,15.97
2018-09-06T05:21:40.690Z,16.80
2018-09-06T05:24:09.367Z,17.30
2018-09-06T05:26:44.977Z,17.17
2018-09-06T05:29:19.017Z,20.90
2018-09-06T05:32:02.712Z,17.13
2018-09-06T05:34:47.761Z,16.10
2018-09-06T05:37:30.289Z,14.50
2018-09-06T05:40:17.738Z,16.73
2018-09-06T05:43:02.490Z,17.80
2018-09-06T05:45:49.151Z,29.03
2018-09-06T05:48:18.999Z,32.70
2018-09-06T05:50:48.814Z,20.10
2018-09-06T05:53:28.959Z,16.70
2018-09-06T05:56:09.267Z,18.60
2018-09-06T05:58:37.572Z,16.10
2018-09-06T06:01:06.145Z,21.50
2018-09-06T06:03:35.055Z,18.43
2018-09-06T06:06:03.048Z,38.37
2018-09-06T06:08:57.840Z,31.87
2018-09-06T06:11:26.918Z,31.63
2018-09-06T06:13:55.042Z,32.53
2018-09-06T06:16:25.342Z,24.20
2018-09-06T06:18:55.342Z,19.27
2018-09-06T06:21:24.418Z,19.03
2018-09-06T06:23:56.482Z,17.53
2018-09-06T06:26:25.184Z,16.93
2018-09-06T06:28:57.314Z,16.80
2018-09-06T06:31:26.213Z,19.73
2018-09-06T06:33:59.146Z,18.17
2018-09-06T06:36:27.611Z,17.47
2018-09-06T06:38:57.795Z,16.23
2018-09-06T06:41:28.346Z,20.53
2018-09-06T06:43:56.883Z,20.90
2018-09-06T06:46:25.800Z,20.07
2018-09-06T06:48:55.523Z,20.60
2018-09-06T06:51:25.883Z,20.27
2018-09-06T06:53:57.798Z,19.23
2018-09-06T06:56:27.577Z,20.10
2018-09-06T06:58:57.757Z,21.63
2018-09-06T07:01:27.624Z,21.30
2018-09-06T07:04:00.322Z,17.07
2018-09-06T07:09:50.264Z,21.80
2018-09-06T07:12:38.897Z,19.43
2018-09-06T07:15:07.566Z,17.97
2018-09-06T07:17:36.175Z,19.47
2018-09-06T07:20:05.307Z,19.63
2018-09-06T07:22:36.920Z,20.63
2018-09-06T07:25:06.603Z,23.07
2018-09-06T07:27:41.501Z,21.47
2018-09-06T07:30:10.984Z,21.33
2018-09-06T07:32:39.977Z,22.90
2018-09-06T07:35:13.018Z,20.97
2018-09-06T07:37:43.063Z,22.63
2018-09-06T07:40:24.109Z,18.87
2018-09-06T07:43:03.159Z,18.97
2018-09-06T07:45:32.076Z,22.70
2018-09-06T07:49:31.384Z,21.07
2018-09-06T07:52:00.454Z,23.33
2018-09-06T07:54:32.038Z,24.30
2018-09-06T07:57:04.568Z,21.63
2018-09-06T07:59:53.993Z,22.10
2018-09-06T08:02:35.273Z,30.03
2018-09-06T08:05:04.478Z,25.53
2018-09-06T08:10:06.931Z,24.53
2018-09-06T08:12:35.590Z,22.30
2018-09-06T08:15:05.767Z,26.33
2018-09-06T08:17:36.701Z,26.23
2018-09-06T08:20:29.745Z,20.83
2018-09-06T08:24:26.359Z,22.97
2018-09-06T08:27:00.743Z,23.40
2018-09-06T08:29:29.853Z,27.10
2018-09-06T08:32:00.881Z,28.10
2018-09-06T08:37:13.078Z,23.63
2018-09-06T08:39:47.671Z,25.20
2018-09-06T08:42:16.743Z,23.83
2018-09-06T08:44:46.204Z,21.37
2018-09-06T08:47:17.499Z,24.00
2018-09-06T08:49:46.405Z,25.30
2018-09-06T08:52:15.566Z,20.27
2018-09-06T08:54:45.454Z,33.40
2018-09-06T08:57:15.598Z,23.40
2018-09-06T09:00:03.510Z,26.97
2018-09-06T09:02:49.436Z,22.00
2018-09-06T09:05:21.064Z,21.43
2018-09-06T09:07:51.847Z,20.43
2018-09-06T09:10:45.206Z,21.83
2018-09-06T09:13:17.658Z,19.53
2018-09-06T09:15:52.747Z,23.37
2018-09-06T09:18:35.300Z,23.27
2018-09-06T09:21:12.300Z,18.57
2018-09-06T09:23:41.551Z,21.53
2018-09-06T09:26:14.168Z,16.97
2018-09-06T09:28:45.228Z,19.50
2018-09-06T09:31:22.217Z,19.03
2018-09-06T09:33:54.036Z,17.40
2018-09-06T09:36:28.048Z,20.17
2018-09-06T09:39:00.011Z,17.53
2018-09-06T09:41:28.118Z,19.17
2018-09-06T09:43:56.188Z,19.50
2018-09-06T09:49:09.044Z,16.57
2018-09-06T09:51:37.174Z,16.60
2018-09-06T09:54:08.653Z,14.27
2018-09-06T09:56:37.228Z,19.63
2018-09-06T09:59:07.304Z,17.67
2018-09-06T10:01:42.816Z,16.47
2018-09-06T10:04:23.252Z,17.07
2018-09-06T10:06:58.978Z,15.00
2018-09-06T10:09:30.467Z,22.23
2018-09-06T10:12:01.419Z,15.13
2018-09-06T10:14:29.799Z,15.23
2018-09-06T10:17:02.220Z,15.73
2018-09-06T10:19:31.760Z,15.00
2018-09-06T10:22:04.383Z,16.87
2018-09-06T10:24:33.388Z,16.60
2018-09-06T10:27:05.242Z,14.57
2018-09-06T10:29:42.297Z,14.00
2018-09-06T10:32:19.334Z,16.13
2018-09-06T10:34:48.801Z,15.87
2018-09-06T10:37:19.377Z,14.53
2018-09-06T10:39:52.753Z,13.87
2018-09-06T10:42:24.346Z,14.67
2018-09-06T10:44:56.152Z,12.57
2018-09-06T10:47:28.626Z,18.57
2018-09-06T10:53:35.385Z,14.47
2018-09-06T10:56:17.633Z,11.00
2018-09-06T10:58:58.938Z,12.93
2018-09-06T11:01:28.524Z,13.50
2018-09-06T11:03:59.758Z,13.83
2018-09-06T11:07:21.435Z,12.60
2018-09-06T11:13:10.180Z,14.47
2018-09-06T11:15:51.375Z,15.50
2018-09-06T11:18:26.748Z,14.07
2018-09-06T11:21:00.508Z,10.43
2018-09-06T11:23:34.681Z,12.10
2018-09-06T11:26:03.574Z,11.97
2018-09-06T11:28:32.218Z,11.03
2018-09-06T11:31:02.187Z,15.53
2018-09-06T11:33:40.937Z,12.67
2018-09-06T11:36:09.898Z,10.07
2018-09-06T11:38:41.442Z,11.97
2018-09-06T11:41:13.089Z,12.80
2018-09-06T11:43:42.244Z,12.73
2018-09-06T11:46:20.922Z,9.80
2018-09-06T11:48:55.107Z,13.63
2018-09-06T11:51:23.796Z,12.87
2018-09-06T11:53:52.972Z,10.77
2018-09-06T11:56:56.610Z,11.80
2018-09-06T11:59:25.210Z,11.30
2018-09-06T12:02:10.504Z,12.90
2018-09-06T12:05:01.049Z,10.93
2018-09-06T12:07:29.723Z,12.80
2018-09-06T12:10:13.626Z,11.70
2018-09-06T12:13:18.679Z,12.87
2018-09-06T12:15:48.514Z,16.47
2018-09-06T12:18:18.480Z,12.57
2018-09-06T12:20:48.276Z,14.50
2018-09-06T12:23:17.859Z,12.17
2018-09-06T12:25:47.717Z,13.10
2018-09-06T12:28:16.427Z,12.77
2018-09-06T12:30:48.788Z,12.23
2018-09-06T12:33:24.952Z,12.73
2018-09-06T12:35:56.239Z,13.03
2018-09-06T12:38:25.802Z,11.23
2018-09-06T12:40:54.850Z,12.10
2018-09-06T12:43:25.125Z,14.33
2018-09-06T12:45:55.450Z,12.10
2018-09-06T12:48:43.404Z,14.40
2018-09-06T12:51:34.948Z,12.33
2018-09-06T12:54:03.859Z,13.53
2018-09-06T12:56:59.419Z,14.80
2018-09-06T13:00:00.275Z,17.63
2018-09-06T13:03:00.125Z,14.77
2018-09-06T13:05:49.763Z,11.67
2018-09-06T13:08:19.889Z,15.00
2018-09-06T13:10:49.498Z,14.77
2018-09-06T13:13:37.130Z,12.30
2018-09-06T13:16:31.719Z,11.80
2018-09-06T13:20:28.473Z,13.83
2018-09-06T13:22:57.402Z,13.07
2018-09-06T13:25:28.714Z,13.37
2018-09-06T13:27:57.943Z,13.87
2018-09-06T13:30:27.443Z,13.77
2018-09-06T13:32:56.304Z,13.03
2018-09-06T13:35:25.153Z,12.40
2018-09-06T13:37:53.203Z,11.63
2018-09-06T13:40:21.926Z,13.77
2018-09-06T13:43:10.653Z,12.77
2018-09-06T13:45:46.610Z,13.40
2018-09-06T13:48:16.705Z,12.73
2018-09-06T13:54:50.317Z,14.57
2018-09-06T13:57:19.217Z,12.67
2018-09-06T13:59:48.484Z,16.43
2018-09-06T14:02:19.190Z,12.97
2018-09-06T14:04:47.295Z,11.37
2018-09-06T14:07:31.159Z,12.10
2018-09-06T14:10:14.112Z,14.80
2018-09-06T14:16:26.775Z,12.97
2018-09-06T14:18:56.599Z,14.63
2018-09-06T14:21:38.934Z,15.77
2018-09-06T14:26:48.618Z,12.80
2018-09-06T14:35:53.274Z,12.87
2018-09-06T14:38:23.902Z,14.00
2018-09-06T14:40:53.523Z,13.23
2018-09-06T14:46:51.404Z,12.27
2018-09-06T14:49:48.032Z,14.63
2018-09-06T14:52:24.370Z,13.00
2018-09-06T14:54:54.818Z,13.77
2018-09-06T14:57:55.164Z,13.80
2018-09-06T15:00:27.413Z,13.03
2018-09-06T15:03:19.755Z,12.83
2018-09-06T15:05:58.693Z,13.47
2018-09-06T15:08:27.910Z,15.47
2018-09-06T15:10:59.505Z,17.30
2018-09-06T15:13:30.120Z,16.50
2018-09-06T15:16:28.209Z,17.53
2018-09-06T15:18:58.795Z,15.00
2018-09-06T15:21:57.372Z,18.80
2018-09-06T15:24:31.443Z,14.47
2018-09-06T15:27:02.972Z,14.20
2018-09-06T15:29:31.931Z,12.80
2018-09-06T15:35:11.370Z,16.23
2018-09-06T15:38:13.098Z,13.57
2018-09-06T15:41:04.353Z,15.63
2018-09-06T15:43:35.155Z,14.60
2018-09-06T15:46:05.710Z,17.33
2018-09-06T15:49:01.551Z,11.93
2018-09-06T15:52:02.744Z,12.13
2018-09-06T15:54:44.632Z,12.47
2018-09-06T15:57:46.914Z,11.50
2018-09-06T16:00:17.940Z,13.13
2018-09-06T16:02:47.515Z,12.40
2018-09-06T16:05:19.957Z,11.97
2018-09-06T16:08:01.640Z,12.33
2018-09-06T16:10:33.162Z,12.47
2018-09-06T16:13:37.470Z,11.63
2018-09-06T16:16:23.300Z,12.50
2018-09-06T16:19:03.151Z,15.07
2018-09-06T16:25:30.192Z,12.30
2018-09-06T16:28:00.542Z,12.27
2018-09-06T16:30:29.692Z,14.67
2018-09-06T16:33:19.720Z,12.37
2018-09-06T16:35:49.374Z,14.03
2018-09-06T16:38:34.266Z,11.70
2018-09-06T16:41:03.328Z,10.57
2018-09-06T16:43:36.860Z,10.90
2018-09-06T16:46:12.070Z,10.17
2018-09-06T16:49:03.790Z,11.63
2018-09-06T16:51:38.570Z,10.83
2018-09-06T16:54:07.753Z,10.87
2018-09-06T16:56:36.303Z,11.77
2018-09-06T16:59:10.507Z,10.57
2018-09-06T17:01:40.740Z,11.00
2018-09-06T17:04:14.785Z,11.07
2018-09-06T17:06:43.761Z,11.63
2018-09-06T17:09:17.677Z,12.03
2018-09-06T17:12:02.264Z,12.33
2018-09-06T17:14:31.877Z,12.67
2018-09-06T17:17:01.662Z,11.30
2018-09-06T17:19:30.434Z,13.20
2018-09-06T17:21:59.887Z,12.30
2018-09-06T17:24:31.127Z,11.43
2018-09-06T17:26:59.845Z,12.70
2018-09-06T17:29:33.806Z,13.23
2018-09-06T17:32:03.915Z,14.00
2018-09-06T17:34:34.258Z,15.50
2018-09-06T17:37:05.629Z,12.17
2018-09-06T17:39:38.299Z,14.90
2018-09-06T17:42:08.775Z,15.13
2018-09-06T17:44:38.139Z,16.53
2018-09-06T17:47:41.713Z,14.10
2018-09-06T17:50:20.630Z,15.93
2018-09-06T17:52:55.177Z,17.43
2018-09-06T17:55:26.110Z,17.53
2018-09-06T17:57:59.611Z,16.37
2018-09-06T18:00:35.578Z,18.43
2018-09-06T18:03:07.929Z,17.45
2018-09-06T18:05:40.375Z,17.40
2018-09-06T18:08:09.197Z,17.53
2018-09-06T18:10:38.711Z,16.37
2018-09-06T18:13:07.397Z,17.40
2018-09-06T18:15:46.213Z,13.70
2018-09-06T18:21:39.604Z,14.20
2018-09-06T18:24:08.663Z,14.23
2018-09-06T18:26:38.722Z,14.50
2018-09-06T18:29:16.539Z,15.57
2018-09-06T18:31:57.149Z,16.43
2018-09-06T18:34:30.285Z,15.03
2018-09-06T18:36:59.375Z,13.53
2018-09-06T18:39:32.499Z,16.33
2018-09-06T18:42:03.539Z,16.03
2018-09-06T18:44:32.036Z,19.50
2018-09-06T18:47:18.388Z,16.80
2018-09-06T18:53:17.208Z,13.60
2018-09-06T18:56:39.298Z,17.57
2018-09-06T18:59:20.544Z,14.70
2018-09-06T19:01:51.372Z,17.57
2018-09-06T19:04:20.460Z,16.47
2018-09-06T19:07:14.766Z,20.77
2018-09-06T19:10:04.703Z,20.93
2018-09-06T19:13:05.036Z,21.67
2018-09-06T19:15:48.073Z,23.67
2018-09-06T19:18:18.755Z,23.63
2018-09-06T19:20:51.224Z,22.63
2018-09-06T19:23:21.409Z,21.83
2018-09-06T19:25:50.411Z,26.73
2018-09-06T19:28:19.874Z,22.07
2018-09-06T19:30:54.740Z,21.63
2018-09-06T19:33:42.228Z,19.83
2018-09-06T19:36:20.379Z,22.13
2018-09-06T19:38:49.713Z,23.23
2018-09-06T19:41:24.493Z,22.60
2018-09-06T19:44:02.969Z,21.30
2018-09-06T19:47:12.539Z,21.13
2018-09-06T19:50:02.409Z,22.67
2018-09-06T19:55:43.363Z,21.97
2018-09-06T19:58:19.598Z,19.53
2018-09-06T20:01:00.019Z,26.40
2018-09-06T20:03:30.472Z,20.40
2018-09-06T20:06:08.698Z,21.90
2018-09-06T20:08:36.795Z,22.13
2018-09-06T20:11:07.272Z,24.57
2018-09-06T20:13:39.433Z,27.67
2018-09-06T20:16:23.314Z,24.97
2018-09-06T20:18:56.537Z,22.50
2018-09-06T20:21:29.720Z,23.57
2018-09-06T20:23:59.732Z,24.83
2018-09-06T20:26:31.822Z,28.70
2018-09-06T20:28:59.967Z,26.37
2018-09-06T20:31:32.079Z,27.87
2018-09-06T20:34:01.361Z,26.90
2018-09-06T20:36:36.578Z,24.67
2018-09-06T20:39:08.659Z,27.00
2018-09-06T20:41:38.058Z,28.60
2018-09-06T20:44:08.823Z,26.83
2018-09-06T20:46:46.491Z,24.80
2018-09-06T20:49:17.896Z,27.67
2018-09-06T20:51:50.339Z,31.13
2018-09-06T20:54:18.898Z,29.70
2018-09-06T20:56:50.067Z,32.37
2018-09-06T20:59:34.299Z,30.63
2018-09-06T21:02:26.937Z,31.13
2018-09-06T21:04:55.868Z,31.37
2018-09-06T21:07:26.052Z,32.93
2018-09-06T21:09:57.821Z,31.10
2018-09-06T21:12:26.012Z,34.97
2018-09-06T21:14:54.342Z,34.63
2018-09-06T21:17:27.812Z,34.37
2018-09-06T21:19:55.838Z,37.60
2018-09-06T21:22:24.975Z,34.53
2018-09-06T21:24:54.398Z,35.97
2018-09-06T21:27:23.859Z,35.10
2018-09-06T21:29:53.032Z,38.87
2018-09-06T21:32:23.442Z,39.17
2018-09-06T21:34:55.900Z,39.30
2018-09-06T21:37:25.996Z,35.43
2018-09-06T21:39:55.906Z,48.20
2018-09-06T21:42:32.662Z,34.90
2018-09-06T21:45:00.955Z,35.03
2018-09-06T21:47:30.555Z,28.70
2018-09-06T21:50:00.144Z,29.83
2018-09-06T21:52:28.874Z,27.00
2018-09-06T21:55:00.883Z,30.67
2018-09-06T21:57:30.974Z,27.30
2018-09-06T22:00:00.982Z,32.20
2018-09-06T22:02:35.659Z,28.27
2018-09-06T22:05:03.939Z,28.73
2018-09-06T22:07:41.157Z,27.63
2018-09-06T22:10:11.554Z,27.00
2018-09-06T22:12:40.079Z,24.17
2018-09-06T22:15:09.204Z,23.73
2018-09-06T22:17:37.529Z,26.40
2018-09-06T22:20:11.699Z,23.33
2018-09-06T22:22:40.930Z,25.07
2018-09-06T22:25:09.747Z,23.93
2018-09-06T22:27:38.333Z,23.23
2018-09-06T22:30:07.374Z,23.10
2018-09-06T22:32:35.494Z,20.73
2018-09-06T22:35:05.231Z,19.97
2018-09-06T22:37:34.493Z,21.37
2018-09-06T22:40:03.788Z,19.90
2018-09-06T22:42:31.884Z,22.43
2018-09-06T22:45:00.093Z,21.93
2018-09-06T22:47:28.266Z,22.17
2018-09-06T22:49:57.563Z,23.47
2018-09-06T22:52:25.735Z,22.90
2018-09-06T22:54:54.813Z,23.77
2018-09-06T22:57:23.638Z,21.60
2018-09-06T22:59:51.969Z,23.07
2018-09-06T23:02:19.947Z,21.23
2018-09-06T23:04:48.512Z,22.73
2018-09-06T23:07:17.975Z,25.67
2018-09-06T23:09:46.074Z,21.97
2018-09-06T23:12:17.715Z,23.33
2018-09-06T23:14:46.203Z,21.60
2018-09-06T23:17:17.308Z,24.60
2018-09-06T23:19:46.582Z,23.83
2018-09-06T23:22:18.602Z,25.90
2018-09-06T23:24:47.897Z,24.07
2018-09-06T23:27:16.963Z,20.67
2018-09-06T23:29:46.547Z,24.03
2018-09-06T23:32:15.570Z,23.73
2018-09-06T23:34:43.717Z,21.00
2018-09-06T23:37:12.151Z,23.87
2018-09-06T23:39:40.391Z,24.70
2018-09-06T23:42:09.012Z,23.03
2018-09-06T23:44:37.127Z,23.10
2018-09-06T23:47:07.094Z,22.50
2018-09-06T23:49:40.515Z,23.20
2018-09-06T23:52:08.860Z,22.07
2018-09-06T23:54:37.635Z,21.80
2018-09-06T23:57:06.542Z,21.83
2018-09-06T23:59:35.818Z,25.70
